createdAt,value
2022-11-02T00:00:36.854Z,64.00
2022-11-02T00:03:05.022Z,64.60
2022-11-02T00:05:33.047Z,65.10
2022-11-02T00:08:00.916Z,65.40
2022-11-02T00:10:29.883Z,66.10
2022-11-02T00:12:57.800Z,65.40
2022-11-02T00:15:27.323Z,65.90
2022-11-02T00:17:56.117Z,64.80
2022-11-02T00:20:23.992Z,66.20
2022-11-02T00:22:52.102Z,65.10
2022-11-02T00:25:20.171Z,65.20
2022-11-02T00:27:48.117Z,65.60
2022-11-02T00:30:16.057Z,65.70
2022-11-02T00:32:45.296Z,65.50
2022-11-02T00:35:13.175Z,65.90
2022-11-02T00:37:41.089Z,66.60
2022-11-02T00:40:09.589Z,65.70
2022-11-02T00:42:37.748Z,66.60
2022-11-02T00:45:06.200Z,67.90
2022-11-02T00:47:34.450Z,68.00
2022-11-02T00:50:03.720Z,67.30
2022-11-02T00:52:31.628Z,67.30
2022-11-02T00:54:59.456Z,68.80
2022-11-02T00:57:27.336Z,69.10
2022-11-02T00:59:55.272Z,68.00
2022-11-02T01:02:23.240Z,68.80
2022-11-02T01:04:51.180Z,68.80
2022-11-02T01:07:20.497Z,69.30
2022-11-02T01:09:48.353Z,67.40
2022-11-02T01:12:16.215Z,68.00
2022-11-02T01:14:44.070Z,67.70
2022-11-02T01:17:11.914Z,67.70
2022-11-02T01:19:39.759Z,67.80
2022-11-02T01:22:07.638Z,67.50
2022-11-02T01:24:36.982Z,67.60
2022-11-02T01:27:04.943Z,68.10
2022-11-02T01:29:32.789Z,67.60
2022-11-02T01:32:00.659Z,66.80
2022-11-02T01:34:28.515Z,67.80
2022-11-02T01:36:56.380Z,67.90
2022-11-02T01:39:24.221Z,68.00
2022-11-02T01:41:53.794Z,68.10
2022-11-02T01:44:26.843Z,69.30
2022-11-02T01:46:54.902Z,68.20
2022-11-02T01:49:22.737Z,67.70
2022-11-02T01:51:50.966Z,67.50
2022-11-02T01:54:19.904Z,68.10
2022-11-02T01:56:51.680Z,67.50
2022-11-02T01:59:21.170Z,68.40
2022-11-02T02:01:49.630Z,67.70
2022-11-02T02:04:17.565Z,68.10
2022-11-02T02:06:45.439Z,67.90
2022-11-02T02:09:13.523Z,67.70
2022-11-02T02:11:41.512Z,68.50
2022-11-02T02:14:10.120Z,68.00
2022-11-02T02:16:49.498Z,68.60
2022-11-02T02:19:19.924Z,68.30
2022-11-02T02:21:50.560Z,68.60
2022-11-02T02:24:34.498Z,67.60
2022-11-02T02:27:04.310Z,67.30
2022-11-02T02:29:33.903Z,66.80
2022-11-02T02:32:02.958Z,67.40
2022-11-02T02:34:31.956Z,67.60
2022-11-02T02:37:01.022Z,67.40
2022-11-02T02:39:31.639Z,68.00
2022-11-02T02:42:00.156Z,68.10
2022-11-02T02:44:28.963Z,67.30
2022-11-02T02:46:59.007Z,67.00
2022-11-02T02:49:27.340Z,67.30
2022-11-02T02:51:55.284Z,67.80
2022-11-02T02:54:23.820Z,67.20
2022-11-02T02:56:51.858Z,67.60
2022-11-02T02:59:21.194Z,67.30
2022-11-02T03:01:49.237Z,67.70
2022-11-02T03:04:18.516Z,68.00
2022-11-02T03:06:47.491Z,67.30
2022-11-02T03:09:17.030Z,67.70
2022-11-02T03:11:56.448Z,67.80
2022-11-02T03:14:29.738Z,67.70
2022-11-02T03:17:02.399Z,68.20
2022-11-02T03:19:33.145Z,66.90
2022-11-02T03:22:02.006Z,65.60
2022-11-02T03:24:31.333Z,66.40
2022-11-02T03:27:02.392Z,66.60
2022-11-02T03:29:32.455Z,66.40
2022-11-02T03:32:01.498Z,67.20
2022-11-02T03:34:29.937Z,66.40
2022-11-02T03:37:00.257Z,65.40
2022-11-02T03:39:29.855Z,65.40
2022-11-02T03:41:57.700Z,64.70
2022-11-02T03:44:25.536Z,65.00
2022-11-02T03:46:54.278Z,65.50
2022-11-02T03:49:22.110Z,65.20
2022-11-02T03:51:49.976Z,63.40
2022-11-02T03:54:20.716Z,62.70
2022-11-02T03:56:49.361Z,62.30
2022-11-02T03:59:17.260Z,62.00
2022-11-02T04:01:45.716Z,61.30
2022-11-02T04:04:13.613Z,60.90
2022-11-02T04:06:42.046Z,61.20
2022-11-02T04:09:11.850Z,61.10
2022-11-02T04:11:59.932Z,61.40
2022-11-02T04:14:40.270Z,61.50
2022-11-02T04:17:25.757Z,62.00
2022-11-02T04:19:53.683Z,62.60
2022-11-02T04:22:39.010Z,62.20
2022-11-02T04:25:19.823Z,62.80
2022-11-02T04:27:49.416Z,62.10
2022-11-02T04:30:17.735Z,62.30
2022-11-02T04:33:03.472Z,63.50
2022-11-02T04:35:31.396Z,62.30
2022-11-02T04:38:17.238Z,61.80
2022-11-02T04:40:45.101Z,61.90
2022-11-02T04:43:14.319Z,62.10
2022-11-02T04:45:42.171Z,62.50
2022-11-02T04:48:10.381Z,62.70
2022-11-02T04:50:38.244Z,63.30
2022-11-02T04:53:07.123Z,63.20
2022-11-02T04:55:35.248Z,62.60
2022-11-02T04:58:03.673Z,62.40
2022-11-02T05:00:33.272Z,61.90
2022-11-02T05:03:01.157Z,62.30
2022-11-02T05:05:29.011Z,62.30
2022-11-02T05:07:56.878Z,62.20
2022-11-02T05:10:24.717Z,63.20
2022-11-02T05:12:57.303Z,63.10
2022-11-02T05:15:25.129Z,63.80
2022-11-02T05:17:54.458Z,64.40
2022-11-02T05:20:22.367Z,63.50
2022-11-02T05:22:50.233Z,63.80
2022-11-02T05:25:18.064Z,63.40
2022-11-02T05:27:45.946Z,64.70
2022-11-02T05:30:14.078Z,65.40
2022-11-02T05:32:41.958Z,65.30
2022-11-02T05:35:11.504Z,65.60
2022-11-02T05:37:39.354Z,67.50
2022-11-02T05:40:08.736Z,67.30
2022-11-02T05:42:36.582Z,67.30
2022-11-02T05:45:04.613Z,67.70
2022-11-02T05:47:32.459Z,68.40
2022-11-02T05:50:00.305Z,67.60
2022-11-02T05:52:29.588Z,67.60
2022-11-02T05:54:57.435Z,68.30
2022-11-02T05:57:25.302Z,67.90
2022-11-02T05:59:53.175Z,69.30
2022-11-02T06:02:23.349Z,69.40
2022-11-02T06:04:53.417Z,68.80
2022-11-02T06:07:21.311Z,68.40
2022-11-02T06:09:50.536Z,68.50
2022-11-02T06:12:18.417Z,69.00
2022-11-02T06:14:46.295Z,69.00
2022-11-02T06:17:14.161Z,69.50
2022-11-02T06:19:41.996Z,69.60
2022-11-02T06:22:09.889Z,69.00
2022-11-02T06:24:37.872Z,70.00
2022-11-02T06:27:07.112Z,69.00
2022-11-02T06:29:34.929Z,68.80
2022-11-02T06:32:02.828Z,69.30
2022-11-02T06:34:30.678Z,69.80
2022-11-02T06:36:58.560Z,70.40
2022-11-02T06:39:26.539Z,69.70
2022-11-02T06:41:54.468Z,70.10
2022-11-02T06:44:23.700Z,69.50
2022-11-02T06:46:51.576Z,70.60
2022-11-02T06:49:19.911Z,70.50
2022-11-02T06:51:47.893Z,69.80
2022-11-02T06:54:15.745Z,69.40
2022-11-02T06:56:43.636Z,69.70
2022-11-02T06:59:11.790Z,70.30
2022-11-02T07:01:41.216Z,69.70
2022-11-02T07:04:09.219Z,68.10
2022-11-02T07:06:37.091Z,67.80
2022-11-02T07:09:05.041Z,65.70
2022-11-02T07:11:33.205Z,65.50
2022-11-02T07:14:01.103Z,66.50
2022-11-02T07:16:29.025Z,67.20
2022-11-02T07:18:58.278Z,68.50
2022-11-02T07:21:26.786Z,68.60
2022-11-02T07:23:54.886Z,67.00
2022-11-02T07:26:23.027Z,67.20
2022-11-02T07:28:55.289Z,68.50
2022-11-02T07:31:27.007Z,69.00
2022-11-02T07:33:54.891Z,68.60
2022-11-02T07:36:24.136Z,68.00
2022-11-02T07:38:52.013Z,68.30
2022-11-02T07:41:19.833Z,68.70
2022-11-02T07:43:47.675Z,68.10
2022-11-02T07:46:15.513Z,67.70
2022-11-02T07:48:43.405Z,68.20
2022-11-02T07:51:11.539Z,68.60
2022-11-02T07:53:41.314Z,68.80
2022-11-02T07:56:09.777Z,67.80
2022-11-02T07:58:37.816Z,68.60
2022-11-02T08:01:06.549Z,68.20
2022-11-02T08:03:34.756Z,67.30
2022-11-02T08:06:03.123Z,67.30
2022-11-02T08:08:31.033Z,67.90
2022-11-02T08:11:03.798Z,67.80
2022-11-02T08:13:32.789Z,68.00
2022-11-02T08:16:00.921Z,68.10
2022-11-02T08:18:29.131Z,68.70
2022-11-02T08:20:57.094Z,68.10
2022-11-02T08:23:24.985Z,67.20
2022-11-02T08:25:52.927Z,68.00
2022-11-02T08:28:22.676Z,67.90
2022-11-02T08:30:50.541Z,67.80
2022-11-02T08:33:18.953Z,67.20
2022-11-02T08:35:47.060Z,67.30
2022-11-02T08:38:14.953Z,66.90
2022-11-02T08:40:42.814Z,66.10
2022-11-02T08:43:11.466Z,66.80
2022-11-02T08:48:29.606Z,67.30
2022-11-02T08:50:57.620Z,66.80
2022-11-02T08:53:25.620Z,66.70
2022-11-02T08:55:53.663Z,66.80
2022-11-02T08:58:21.746Z,66.20
2022-11-02T09:00:51.100Z,66.00
2022-11-02T09:03:25.100Z,65.80
2022-11-02T09:05:57.255Z,66.10
2022-11-02T09:08:25.354Z,66.00
2022-11-02T09:10:53.467Z,65.50
2022-11-02T09:13:25.650Z,67.20
2022-11-02T09:15:55.875Z,67.10
2022-11-02T09:18:24.270Z,67.50
2022-11-02T09:20:52.268Z,66.70
2022-11-02T09:23:20.614Z,65.80
2022-11-02T09:25:48.618Z,64.00
2022-11-02T09:28:16.542Z,62.50
2022-11-02T09:30:44.498Z,61.20
2022-11-02T09:33:13.919Z,61.20
2022-11-02T09:35:42.424Z,60.60
2022-11-02T09:38:10.277Z,59.80
2022-11-02T09:40:38.974Z,60.20
2022-11-02T09:43:08.341Z,58.00
2022-11-02T09:45:37.394Z,57.90
2022-11-02T09:48:28.067Z,58.80
2022-11-02T09:51:01.034Z,58.60
2022-11-02T09:53:32.563Z,57.30
2022-11-02T09:56:00.756Z,57.50
2022-11-02T09:58:30.250Z,57.20
2022-11-02T10:01:01.792Z,57.60
2022-11-02T10:03:33.206Z,58.40
2022-11-02T10:06:03.685Z,56.50
2022-11-02T10:08:33.855Z,56.40
2022-11-02T10:11:08.257Z,54.90
2022-11-02T10:13:38.794Z,55.70
2022-11-02T10:16:07.676Z,55.80
2022-11-02T10:18:35.679Z,55.50
2022-11-02T10:21:07.394Z,53.70
2022-11-02T10:23:37.822Z,52.30
2022-11-02T10:26:06.204Z,53.10
2022-11-02T10:28:35.427Z,51.20
2022-11-02T10:31:03.703Z,52.20
2022-11-02T10:33:32.095Z,52.50
2022-11-02T10:36:22.650Z,51.90
2022-11-02T10:38:54.598Z,50.00
2022-11-02T10:41:27.339Z,53.60
2022-11-02T10:43:59.366Z,53.10
2022-11-02T10:46:34.208Z,50.20
2022-11-02T10:49:03.421Z,51.10
2022-11-02T10:51:32.727Z,50.60
2022-11-02T10:54:00.607Z,50.10
2022-11-02T10:56:30.638Z,51.30
2022-11-02T10:59:00.520Z,50.50
2022-11-02T11:01:29.105Z,49.90
2022-11-02T11:03:58.013Z,48.20
2022-11-02T11:06:26.325Z,49.50
2022-11-02T11:08:59.763Z,49.70
2022-11-02T11:11:29.322Z,48.90
2022-11-02T11:16:48.029Z,46.10
2022-11-02T11:22:03.101Z,46.30
2022-11-02T11:24:32.578Z,44.60
2022-11-02T11:27:13.978Z,44.50
2022-11-02T11:29:42.174Z,44.90
2022-11-02T11:32:14.475Z,45.60
2022-11-02T11:34:42.643Z,45.90
2022-11-02T11:37:11.014Z,46.20
2022-11-02T11:39:40.678Z,44.80
2022-11-02T11:42:14.614Z,47.90
2022-11-02T11:44:45.215Z,46.50
2022-11-02T11:47:13.082Z,45.30
2022-11-02T11:50:07.132Z,44.90
2022-11-02T11:52:32.278Z,44.80
2022-11-02T11:55:01.975Z,45.90
2022-11-02T11:57:31.716Z,45.70
2022-11-02T12:00:01.668Z,46.30
2022-11-02T12:02:30.131Z,46.80
2022-11-02T12:05:01.939Z,44.80
2022-11-02T12:07:39.611Z,43.20
2022-11-02T12:10:11.238Z,44.50
2022-11-02T12:12:43.414Z,45.40
2022-11-02T12:15:15.071Z,43.80
2022-11-02T12:17:46.082Z,43.20
2022-11-02T12:20:15.720Z,43.50
2022-11-02T12:22:46.011Z,43.70
2022-11-02T12:25:28.926Z,41.90
2022-11-02T12:27:58.801Z,42.40
2022-11-02T12:30:26.674Z,42.40
2022-11-02T12:32:58.414Z,43.20
2022-11-02T12:35:30.165Z,41.10
2022-11-02T12:38:01.790Z,41.20
2022-11-02T12:40:34.518Z,43.60
2022-11-02T12:43:04.239Z,42.30
2022-11-02T12:45:37.538Z,42.60
2022-11-02T12:48:06.551Z,43.90
2022-11-02T12:50:48.792Z,44.30
2022-11-02T12:53:26.272Z,42.80
2022-11-02T12:55:57.536Z,40.80
2022-11-02T12:58:27.311Z,42.00
2022-11-02T13:00:56.969Z,42.10
2022-11-02T13:03:28.346Z,41.30
2022-11-02T13:05:57.670Z,42.00
2022-11-02T13:08:26.566Z,40.90
2022-11-02T13:10:56.901Z,40.10
2022-11-02T13:13:30.948Z,39.80
2022-11-02T13:15:59.839Z,40.60
2022-11-02T13:18:28.266Z,40.40
2022-11-02T13:20:56.735Z,40.10
2022-11-02T13:23:27.597Z,41.00
2022-11-02T13:25:57.397Z,38.80
2022-11-02T13:28:27.384Z,38.80
2022-11-02T13:30:55.238Z,39.40
2022-11-02T13:33:26.372Z,39.80
2022-11-02T13:35:54.382Z,39.80
2022-11-02T13:38:25.836Z,40.10
2022-11-02T13:40:55.979Z,39.90
2022-11-02T13:43:41.463Z,39.50
2022-11-02T13:46:13.916Z,41.70
2022-11-02T13:48:48.597Z,40.00
2022-11-02T13:51:20.740Z,40.00
2022-11-02T13:53:50.764Z,43.30
2022-11-02T13:56:22.490Z,42.60
2022-11-02T13:58:50.759Z,41.10
2022-11-02T14:01:20.041Z,41.60
2022-11-02T14:03:49.533Z,41.70
2022-11-02T14:06:18.106Z,43.50
2022-11-02T14:08:49.378Z,42.10
2022-11-02T14:11:34.317Z,40.90
2022-11-02T14:14:21.108Z,41.60
2022-11-02T14:17:13.145Z,40.60
2022-11-02T14:19:51.639Z,41.30
2022-11-02T14:22:19.566Z,41.20
2022-11-02T14:24:54.139Z,40.50
2022-11-02T14:27:28.729Z,42.10
2022-11-02T14:29:56.607Z,42.70
2022-11-02T14:32:30.986Z,42.20
2022-11-02T14:35:01.884Z,44.10
2022-11-02T14:37:34.312Z,43.10
2022-11-02T14:40:03.281Z,42.30
2022-11-02T14:42:34.934Z,42.70
2022-11-02T14:45:11.555Z,43.20
2022-11-02T14:47:41.807Z,42.10
2022-11-02T14:50:11.566Z,41.80
2022-11-02T14:52:39.688Z,43.20
2022-11-02T14:55:08.969Z,42.30
2022-11-02T14:57:37.348Z,42.40
2022-11-02T15:00:06.604Z,41.80
2022-11-02T15:02:37.378Z,42.60
2022-11-02T15:05:10.266Z,42.60
2022-11-02T15:07:40.260Z,43.20
2022-11-02T15:10:10.863Z,44.50
2022-11-02T15:12:41.086Z,43.80
2022-11-02T15:15:39.266Z,43.60
2022-11-02T15:18:22.668Z,43.80
2022-11-02T15:21:23.452Z,42.70
2022-11-02T15:23:55.004Z,43.70
2022-11-02T15:26:24.775Z,44.10
2022-11-02T15:28:52.630Z,44.70
2022-11-02T15:31:25.725Z,44.80
2022-11-02T15:33:54.611Z,43.30
2022-11-02T15:36:23.210Z,45.10
2022-11-02T15:38:52.000Z,46.60
2022-11-02T15:41:22.688Z,48.50
2022-11-02T15:44:08.494Z,47.70
2022-11-02T15:46:39.452Z,48.20
2022-11-02T15:49:12.350Z,47.60
2022-11-02T15:51:40.917Z,48.40
2022-11-02T15:54:12.384Z,49.80
2022-11-02T15:56:50.687Z,50.30
2022-11-02T15:59:33.430Z,50.90
2022-11-02T16:02:10.152Z,51.00
2022-11-02T16:04:38.089Z,51.50
2022-11-02T16:07:06.021Z,52.10
2022-11-02T16:09:34.665Z,53.50
2022-11-02T16:12:04.753Z,55.50
2022-11-02T16:14:33.198Z,55.20
2022-11-02T16:17:01.087Z,57.00
2022-11-02T16:19:28.920Z,56.70
2022-11-02T16:22:01.171Z,55.90
2022-11-02T16:24:29.519Z,56.60
2022-11-02T16:26:57.447Z,56.60
2022-11-02T16:29:30.225Z,56.40
2022-11-02T16:31:58.159Z,58.50
2022-11-02T16:34:26.677Z,60.30
2022-11-02T16:36:54.533Z,60.00
2022-11-02T16:39:23.438Z,60.00
2022-11-02T16:41:51.486Z,59.10
2022-11-02T16:44:21.055Z,59.20
2022-11-02T16:46:50.848Z,62.30
2022-11-02T16:49:19.630Z,62.20
2022-11-02T16:51:55.039Z,62.10
2022-11-02T16:54:27.939Z,61.40
2022-11-02T16:56:58.160Z,61.50
2022-11-02T16:59:26.394Z,60.60
2022-11-02T17:02:00.123Z,62.30
2022-11-02T17:04:28.703Z,62.80
2022-11-02T17:06:56.992Z,61.70
2022-11-02T17:09:26.072Z,61.90
2022-11-02T17:11:54.329Z,63.20
2022-11-02T17:14:22.191Z,64.90
2022-11-02T17:17:02.029Z,63.80
2022-11-02T17:19:48.153Z,63.70
2022-11-02T17:22:16.922Z,64.10
2022-11-02T17:24:44.779Z,65.10
2022-11-02T17:27:19.702Z,64.40
2022-11-02T17:29:47.545Z,64.30
2022-11-02T17:32:16.859Z,64.50
2022-11-02T17:34:51.093Z,64.40
2022-11-02T17:37:23.088Z,65.20
2022-11-02T17:39:50.948Z,64.90
2022-11-02T17:42:36.282Z,65.10
2022-11-02T17:45:22.519Z,64.80
2022-11-02T17:47:51.750Z,65.40
2022-11-02T17:50:19.691Z,66.00
2022-11-02T17:52:49.127Z,65.60
2022-11-02T17:55:17.661Z,65.40
2022-11-02T17:57:45.532Z,66.20
2022-11-02T18:00:14.150Z,65.70
2022-11-02T18:02:42.172Z,66.80
2022-11-02T18:05:13.654Z,66.50
2022-11-02T18:07:41.536Z,66.50
2022-11-02T18:10:09.762Z,67.50
2022-11-02T18:12:37.636Z,67.60
2022-11-02T18:15:05.644Z,66.80
2022-11-02T18:17:35.067Z,66.60
2022-11-02T18:20:03.195Z,66.60
2022-11-02T18:22:32.471Z,66.20
2022-11-02T18:25:00.307Z,66.70
2022-11-02T18:27:28.925Z,67.20
2022-11-02T18:29:56.819Z,67.30
2022-11-02T18:32:24.762Z,67.10
2022-11-02T18:34:52.666Z,67.20
2022-11-02T18:37:20.519Z,67.60
2022-11-02T18:39:49.820Z,68.60
2022-11-02T18:42:17.733Z,69.00
2022-11-02T18:44:45.583Z,68.20
2022-11-02T18:47:13.721Z,67.40
2022-11-02T18:49:41.572Z,67.30
2022-11-02T18:52:09.431Z,67.80
2022-11-02T18:54:37.287Z,68.60
2022-11-02T18:57:06.577Z,69.10
2022-11-02T18:59:34.422Z,69.40
2022-11-02T19:02:03.671Z,69.40
2022-11-02T19:04:31.590Z,69.10
2022-11-02T19:07:16.963Z,69.60
2022-11-02T19:09:44.789Z,70.00
2022-11-02T19:12:14.629Z,69.70
2022-11-02T19:14:43.069Z,69.70
2022-11-02T19:17:11.243Z,70.40
2022-11-02T19:19:40.817Z,69.90
2022-11-02T19:22:08.683Z,70.40
2022-11-02T19:24:36.512Z,69.80
2022-11-02T19:27:04.356Z,69.30
2022-11-02T19:29:34.005Z,69.50
2022-11-02T19:32:01.904Z,69.70
2022-11-02T19:34:30.484Z,69.80
2022-11-02T19:36:58.738Z,69.70
2022-11-02T19:39:26.627Z,69.60
2022-11-02T19:41:54.495Z,69.80
2022-11-02T19:44:22.495Z,69.50
2022-11-02T19:46:51.760Z,68.50
2022-11-02T19:49:19.679Z,69.50
2022-11-02T19:51:47.587Z,69.80
2022-11-02T19:54:15.726Z,68.90
2022-11-02T19:56:43.621Z,67.70
2022-11-02T19:59:11.478Z,69.70
2022-11-02T20:01:39.784Z,70.20
2022-11-02T20:04:09.054Z,70.30
2022-11-02T20:06:37.421Z,69.70
2022-11-02T20:09:05.559Z,69.80
2022-11-02T20:11:33.443Z,69.40
2022-11-02T20:14:01.661Z,69.00
2022-11-02T20:16:29.515Z,69.40
2022-11-02T20:18:57.491Z,68.80
2022-11-02T20:21:31.587Z,68.60
2022-11-02T20:24:01.334Z,69.10
2022-11-02T20:26:29.779Z,69.00
2022-11-02T20:28:58.324Z,70.30
2022-11-02T20:31:27.402Z,69.60
2022-11-02T20:33:55.249Z,69.10
2022-11-02T20:36:23.130Z,69.90
2022-11-02T20:38:54.269Z,70.20
2022-11-02T20:41:23.758Z,70.70
2022-11-02T20:43:53.219Z,70.60
2022-11-02T20:46:39.148Z,70.10
2022-11-02T20:49:20.366Z,70.10
2022-11-02T20:51:56.550Z,69.90
2022-11-02T20:54:29.424Z,69.80
2022-11-02T20:56:57.339Z,70.40
2022-11-02T20:59:25.222Z,71.60
2022-11-02T21:01:53.195Z,70.60
2022-11-02T21:04:21.756Z,70.50
2022-11-02T21:06:49.908Z,70.10
2022-11-02T21:09:17.760Z,71.10
2022-11-02T21:12:04.459Z,70.90
2022-11-02T21:14:32.324Z,70.00
2022-11-02T21:17:02.088Z,69.20
2022-11-02T21:19:30.043Z,69.40
2022-11-02T21:21:59.892Z,69.30
2022-11-02T21:24:28.253Z,68.60
2022-11-02T21:26:57.484Z,67.90
2022-11-02T21:29:25.317Z,68.20
2022-11-02T21:31:53.220Z,67.30
2022-11-02T21:34:21.051Z,67.20
2022-11-02T21:36:49.051Z,66.70
2022-11-02T21:39:16.903Z,66.30
2022-11-02T21:41:44.769Z,66.60
2022-11-02T21:44:13.946Z,67.20
2022-11-02T21:46:41.832Z,67.70
2022-11-02T21:49:09.746Z,67.90
2022-11-02T21:51:38.537Z,68.60
2022-11-02T21:54:06.419Z,68.70
2022-11-02T21:56:35.971Z,69.60
2022-11-02T21:59:05.315Z,67.70
2022-11-02T22:01:48.866Z,67.50
2022-11-02T22:04:19.418Z,68.10
2022-11-02T22:06:47.273Z,68.10
2022-11-02T22:09:15.119Z,66.90
2022-11-02T22:11:44.785Z,67.20
2022-11-02T22:14:12.783Z,66.30
2022-11-02T22:16:42.515Z,66.60
2022-11-02T22:19:10.855Z,66.60
2022-11-02T22:21:39.176Z,66.00
2022-11-02T22:24:07.470Z,67.20
2022-11-02T22:26:35.479Z,67.50
2022-11-02T22:29:03.345Z,67.80
2022-11-02T22:31:31.571Z,67.20
2022-11-02T22:34:01.579Z,67.00
2022-11-02T22:36:29.832Z,66.30
2022-11-02T22:38:57.436Z,66.80
2022-11-02T22:41:25.529Z,67.30
2022-11-02T22:43:53.659Z,68.70
2022-11-02T22:46:21.531Z,67.90
2022-11-02T22:48:49.403Z,67.50
2022-11-02T22:51:19.193Z,67.20
2022-11-02T22:53:47.017Z,67.40
2022-11-02T22:56:14.980Z,67.20
2022-11-02T22:58:43.154Z,66.90
2022-11-02T23:01:12.720Z,68.90
2022-11-02T23:03:40.618Z,68.20
2022-11-02T23:06:08.603Z,68.30
2022-11-02T23:08:38.113Z,69.20
2022-11-02T23:11:24.150Z,70.10
2022-11-02T23:13:52.959Z,69.90
2022-11-02T23:16:23.954Z,68.30
2022-11-02T23:19:09.806Z,68.40
2022-11-02T23:21:37.755Z,67.90
2022-11-02T23:24:24.922Z,68.20
2022-11-02T23:26:52.779Z,67.40
2022-11-02T23:29:38.192Z,67.20
2022-11-02T23:32:23.975Z,67.90
2022-11-02T23:35:09.314Z,67.70
2022-11-02T23:37:37.163Z,68.20
2022-11-02T23:40:07.138Z,68.70
2022-11-02T23:42:34.969Z,69.30
2022-11-02T23:45:02.848Z,69.20
2022-11-02T23:47:47.959Z,69.60
2022-11-02T23:50:35.919Z,69.40
2022-11-02T23:53:21.385Z,69.10
2022-11-02T23:56:08.327Z,68.70
2022-11-02T23:58:36.171Z,67.80
